Aeroporto :
LOGIN :

Iscrizione | Disclaimer

   EN    FR    IT 

 










Sommario :    VFR   VFR Marginale   IFR   IFR Intensivo   IFR Molto Intensivo
Visibilità : 
Base nubi : 
>= 8 km
>= 3000ft
5 / 8 km
1000 / 3000 ft
1500m / 5 km
500 / 1000 ft
800 / 1500m
200 / 500 ft
< 800m
< 200 ft
Simboli :   Temporali  Nebbia  Neve Forte  Precipitazioni Forti  Vento > 20 kt
SIGMETs :   Varie  Temporali  Ghiacco  Turbolenza  Onda orograficha  Ceneri Vulcaniche






- Altitudine del aeroporto : 266 ft
- Codice IATA : NCL


EGNT - Newcastle

ULTIMO METAR :
  • 071020Z AUTO 36016KT 9999 OVC016/// 10/07 Q1009

METARs OBSOLETI :
  • 070950Z AUTO 35014KT 9999 OVC015/// 10/07 Q1008
  • 070920Z AUTO 35010G20KT 9999 BKN014/// OVC039/// 10/08 Q1008
  • 070850Z AUTO 36014KT 9999 OVC013/// 10/08 Q1007
  • 070820Z AUTO 35011KT 9999 OVC013/// 10/08 Q1007
  • 070750Z AUTO 35010KT 9999 OVC008/// 10/08 Q1007
  • 070720Z AUTO 35009KT 9999 OVC009/// 09/08 Q1006 RERA

TAF TAF EGNT
Valido dal 07 a 06 ore il 08 a 06 ore UTC


070500Z 0706/0806 29006KT 9999 SCT025
BECMG 0706/0709 35014KT
TEMPO 0706/0717 6000 RA BKN009
PROB30
TEMPO 0706/0708 3500 +RA
TEMPO 0709/0717 34016G26KT
BECMG 0721/0724 33004KT
ATIS : +44 191 214 3400



MetMap, La meteo Aeronautica in un colpo d'occhio ! - Copyright ORBIFLY Dicembre 2007 - Disclaimer

ORBIFLY MET'MAP TEAM :

Programmazione e sviluppo : Alexandra Zaïnal
Concezione : Baudouin d'Aumeries
Aiuto per la programmazione : Marc-Olivier Méhu
Supporto tecnico e logistico : Manuel Goepfert
Aiuto per la traduzione : Arnaldo La Scala

Contatto : metmap@orbifly.com




FONTI E CREDITI :

   NOAA